createdAt,value
2022-08-21T00:01:13.516Z,100.00
2022-08-21T00:03:44.808Z,100.00
2022-08-21T00:06:14.857Z,100.00
2022-08-21T00:08:45.093Z,100.00
2022-08-21T00:11:15.659Z,100.00
2022-08-21T00:13:45.315Z,100.00
2022-08-21T00:16:15.105Z,100.00
2022-08-21T00:18:46.348Z,100.00
2022-08-21T00:21:17.269Z,100.00
2022-08-21T00:23:46.904Z,100.00
2022-08-21T00:26:16.529Z,100.00
2022-08-21T00:28:47.048Z,100.00
2022-08-21T00:31:16.925Z,100.00
2022-08-21T00:33:48.249Z,100.00
2022-08-21T00:36:18.096Z,100.00
2022-08-21T00:38:47.629Z,100.00
2022-08-21T00:41:29.836Z,100.00
2022-08-21T00:44:09.095Z,100.00
2022-08-21T00:46:40.427Z,100.00
2022-08-21T00:49:14.889Z,100.00
2022-08-21T00:51:51.467Z,100.00
2022-08-21T00:54:23.396Z,100.00
2022-08-21T00:57:00.707Z,100.00
2022-08-21T00:59:37.160Z,100.00
2022-08-21T01:02:11.315Z,100.00
2022-08-21T01:04:42.772Z,100.00
2022-08-21T01:07:13.605Z,100.00
2022-08-21T01:09:44.584Z,100.00
2022-08-21T01:12:15.053Z,100.00
2022-08-21T01:14:45.686Z,100.00
2022-08-21T01:17:26.104Z,100.00
2022-08-21T01:20:00.421Z,100.00
2022-08-21T01:22:31.397Z,100.00
2022-08-21T01:25:00.889Z,100.00
2022-08-21T01:27:30.413Z,100.00
2022-08-21T01:30:11.453Z,100.00
2022-08-21T01:32:41.771Z,100.00
2022-08-21T01:35:13.241Z,100.00
2022-08-21T01:37:44.593Z,100.00
2022-08-21T01:40:18.283Z,100.00
2022-08-21T01:42:49.524Z,100.00
2022-08-21T01:45:19.592Z,100.00
2022-08-21T01:47:49.166Z,100.00
2022-08-21T01:50:22.438Z,100.00
2022-08-21T01:52:54.012Z,100.00
2022-08-21T01:55:25.513Z,100.00
2022-08-21T01:57:55.040Z,100.00
2022-08-21T02:00:25.745Z,100.00
2022-08-21T02:02:55.337Z,100.00
2022-08-21T02:05:24.893Z,100.00
2022-08-21T02:07:57.408Z,100.00
2022-08-21T02:10:32.622Z,100.00
2022-08-21T02:13:02.863Z,100.00
2022-08-21T02:15:33.373Z,100.00
2022-08-21T02:18:04.565Z,100.00
2022-08-21T02:20:40.104Z,100.00
2022-08-21T02:23:13.333Z,100.00
2022-08-21T02:25:43.632Z,100.00
2022-08-21T02:28:16.465Z,100.00
2022-08-21T02:30:50.185Z,100.00
2022-08-21T02:33:20.650Z,100.00
2022-08-21T02:35:51.496Z,100.00
2022-08-21T02:38:27.340Z,100.00
2022-08-21T02:41:00.200Z,100.00
2022-08-21T02:43:30.917Z,100.00
2022-08-21T02:46:01.334Z,100.00
2022-08-21T02:48:33.689Z,100.00
2022-08-21T02:51:06.693Z,100.00
2022-08-21T02:53:38.201Z,100.00
2022-08-21T02:56:11.819Z,100.00
2022-08-21T02:58:45.865Z,100.00
2022-08-21T03:01:16.592Z,100.00
2022-08-21T03:03:50.742Z,100.00
2022-08-21T03:06:25.496Z,100.00
2022-08-21T03:08:56.350Z,100.00
2022-08-21T03:11:27.428Z,100.00
2022-08-21T03:13:56.930Z,100.00
2022-08-21T03:16:26.474Z,100.00
2022-08-21T03:18:56.060Z,100.00
2022-08-21T03:21:25.511Z,100.00
2022-08-21T03:23:56.528Z,100.00
2022-08-21T03:26:27.898Z,100.00
2022-08-21T03:28:58.578Z,100.00
2022-08-21T03:31:31.692Z,100.00
2022-08-21T03:34:01.252Z,100.00
2022-08-21T03:36:30.747Z,100.00
2022-08-21T03:39:01.637Z,100.00
2022-08-21T03:41:31.222Z,100.00
2022-08-21T03:44:01.148Z,100.00
2022-08-21T03:46:30.856Z,100.00
2022-08-21T03:49:00.355Z,100.00
2022-08-21T03:51:30.850Z,100.00
2022-08-21T03:54:01.765Z,100.00
2022-08-21T03:56:31.375Z,100.00
2022-08-21T03:59:00.976Z,100.00
2022-08-21T04:01:30.537Z,100.00
2022-08-21T04:04:00.560Z,100.00
2022-08-21T04:06:33.460Z,100.00
2022-08-21T04:09:08.122Z,100.00
2022-08-21T04:11:37.761Z,100.00
2022-08-21T04:14:07.245Z,100.00
2022-08-21T04:16:36.837Z,100.00
2022-08-21T04:19:06.429Z,100.00
2022-08-21T04:21:38.661Z,100.00
2022-08-21T04:24:11.582Z,100.00
2022-08-21T04:26:41.372Z,100.00
2022-08-21T04:29:10.775Z,100.00
2022-08-21T04:31:40.395Z,100.00
2022-08-21T04:34:09.891Z,100.00
2022-08-21T04:36:39.523Z,100.00
2022-08-21T04:39:10.481Z,100.00
2022-08-21T04:41:40.433Z,100.00
2022-08-21T04:44:10.499Z,100.00
2022-08-21T04:46:40.069Z,100.00
2022-08-21T04:49:09.517Z,100.00
2022-08-21T04:51:41.348Z,100.00
2022-08-21T04:54:19.798Z,100.00
2022-08-21T04:56:56.826Z,100.00
2022-08-21T04:59:32.761Z,100.00
2022-08-21T05:02:03.528Z,100.00
2022-08-21T05:04:43.516Z,100.00
2022-08-21T05:07:19.388Z,100.00
2022-08-21T05:10:12.625Z,100.00
2022-08-21T05:12:44.284Z,100.00
2022-08-21T05:15:15.211Z,100.00
2022-08-21T05:17:55.439Z,100.00
2022-08-21T05:20:31.015Z,100.00
2022-08-21T05:23:00.690Z,100.00
2022-08-21T05:25:32.073Z,100.00
2022-08-21T05:28:05.262Z,100.00
2022-08-21T05:30:36.911Z,100.00
2022-08-21T05:33:09.160Z,100.00
2022-08-21T05:35:39.905Z,100.00
2022-08-21T05:38:16.624Z,100.00
2022-08-21T05:40:49.262Z,100.00
2022-08-21T05:43:18.904Z,100.00
2022-08-21T05:45:49.224Z,100.00
2022-08-21T05:48:23.173Z,100.00
2022-08-21T05:50:55.292Z,100.00
2022-08-21T05:53:27.256Z,100.00
2022-08-21T05:55:58.100Z,100.00
2022-08-21T05:58:27.844Z,100.00
2022-08-21T06:00:57.383Z,100.00
2022-08-21T06:03:30.893Z,100.00
2022-08-21T06:06:00.968Z,100.00
2022-08-21T06:08:31.508Z,100.00
2022-08-21T06:11:05.061Z,100.00
2022-08-21T06:13:35.713Z,100.00
2022-08-21T06:16:09.718Z,100.00
2022-08-21T06:18:40.904Z,100.00
2022-08-21T06:21:12.311Z,100.00
2022-08-21T06:23:42.161Z,100.00
2022-08-21T06:26:16.154Z,100.00
2022-08-21T06:28:46.135Z,100.00
2022-08-21T06:31:21.288Z,100.00
2022-08-21T06:33:51.527Z,100.00
2022-08-21T06:36:21.808Z,100.00
2022-08-21T06:38:51.865Z,100.00
2022-08-21T06:41:26.322Z,100.00
2022-08-21T06:43:57.542Z,100.00
2022-08-21T06:46:30.703Z,100.00
2022-08-21T06:49:00.851Z,100.00
2022-08-21T06:51:30.410Z,100.00
2022-08-21T06:54:00.049Z,100.00
2022-08-21T06:56:30.957Z,100.00
2022-08-21T06:59:01.160Z,100.00
2022-08-21T07:01:30.706Z,100.00
2022-08-21T07:04:00.837Z,100.00
2022-08-21T07:06:30.576Z,100.00
2022-08-21T07:09:04.491Z,100.00
2022-08-21T07:11:43.214Z,100.00
2022-08-21T07:14:20.122Z,100.00
2022-08-21T07:16:50.232Z,100.00
2022-08-21T07:19:20.564Z,100.00
2022-08-21T07:21:50.312Z,100.00
2022-08-21T07:24:19.859Z,100.00
2022-08-21T07:26:50.683Z,100.00
2022-08-21T07:29:20.200Z,100.00
2022-08-21T07:31:49.973Z,100.00
2022-08-21T07:34:20.205Z,100.00
2022-08-21T07:36:49.725Z,100.00
2022-08-21T07:39:19.225Z,100.00
2022-08-21T07:41:50.076Z,100.00
2022-08-21T07:44:19.721Z,100.00
2022-08-21T07:46:53.070Z,100.00
2022-08-21T07:49:22.652Z,100.00
2022-08-21T07:51:52.808Z,100.00
2022-08-21T07:54:33.516Z,100.00
2022-08-21T07:57:05.871Z,100.00
2022-08-21T07:59:35.408Z,100.00
2022-08-21T08:02:05.257Z,100.00
2022-08-21T08:04:34.813Z,100.00
2022-08-21T08:07:04.724Z,100.00
2022-08-21T08:09:34.243Z,100.00
2022-08-21T08:12:06.356Z,100.00
2022-08-21T08:14:35.915Z,100.00
2022-08-21T08:17:05.747Z,100.00
2022-08-21T08:19:35.234Z,100.00
2022-08-21T08:22:16.193Z,100.00
2022-08-21T08:24:45.871Z,100.00
2022-08-21T08:27:17.317Z,100.00
2022-08-21T08:29:47.125Z,100.00
2022-08-21T08:32:17.413Z,100.00
2022-08-21T08:34:47.771Z,100.00
2022-08-21T08:37:17.731Z,100.00
2022-08-21T08:39:47.692Z,100.00
2022-08-21T08:42:32.714Z,100.00
2022-08-21T08:45:10.093Z,100.00
2022-08-21T08:47:45.432Z,100.00
2022-08-21T08:50:22.312Z,100.00
2022-08-21T08:52:59.760Z,100.00
2022-08-21T08:55:36.836Z,100.00
2022-08-21T08:58:08.456Z,100.00
2022-08-21T09:00:40.520Z,100.00
2022-08-21T09:03:10.032Z,100.00
2022-08-21T09:05:48.173Z,100.00
2022-08-21T09:08:42.873Z,100.00
2022-08-21T09:11:23.636Z,100.00
2022-08-21T09:14:09.128Z,100.00
2022-08-21T09:16:50.222Z,100.00
2022-08-21T09:19:44.497Z,100.00
2022-08-21T09:22:25.020Z,100.00
2022-08-21T09:25:08.816Z,100.00
2022-08-21T09:27:38.665Z,100.00
2022-08-21T09:30:13.080Z,100.00
2022-08-21T09:32:43.441Z,100.00
2022-08-21T09:35:18.354Z,100.00
2022-08-21T09:37:55.653Z,100.00
2022-08-21T09:40:37.774Z,100.00
2022-08-21T09:43:19.068Z,100.00
2022-08-21T09:46:04.685Z,100.00
2022-08-21T09:48:48.765Z,100.00
2022-08-21T09:51:25.711Z,100.00
2022-08-21T09:54:00.276Z,100.00
2022-08-21T09:56:53.104Z,100.00
2022-08-21T09:59:36.446Z,100.00
2022-08-21T10:02:32.909Z,100.00
2022-08-21T10:05:17.801Z,100.00
2022-08-21T10:07:47.496Z,100.00
2022-08-21T10:10:23.216Z,100.00
2022-08-21T10:13:00.669Z,100.00
2022-08-21T10:15:44.102Z,100.00
2022-08-21T10:18:26.540Z,100.00
2022-08-21T10:21:11.350Z,100.00
2022-08-21T10:24:00.945Z,100.00
2022-08-21T10:26:54.652Z,100.00
2022-08-21T10:29:47.570Z,100.00
2022-08-21T10:32:29.631Z,100.00
2022-08-21T10:35:13.062Z,100.00
2022-08-21T10:38:02.964Z,100.00
2022-08-21T10:40:42.988Z,100.00
2022-08-21T10:43:27.174Z,100.00
2022-08-21T10:46:09.449Z,100.00
2022-08-21T10:48:49.349Z,100.00
2022-08-21T10:51:32.911Z,100.00
2022-08-21T10:54:18.185Z,100.00
2022-08-21T10:57:01.888Z,100.00
2022-08-21T10:59:47.986Z,100.00
2022-08-21T11:02:29.861Z,100.00
2022-08-21T11:05:07.821Z,100.00
2022-08-21T11:07:46.157Z,100.00
2022-08-21T11:10:27.480Z,100.00
2022-08-21T11:13:08.086Z,100.00
2022-08-21T11:15:50.257Z,97.18
2022-08-21T11:18:28.706Z,89.56
2022-08-21T11:21:37.032Z,96.86
2022-08-21T11:24:27.172Z,97.70
2022-08-21T11:27:09.628Z,91.66
2022-08-21T11:29:42.062Z,89.41
2022-08-21T11:33:00.269Z,87.08
2022-08-21T11:36:05.182Z,95.38
2022-08-21T11:38:42.759Z,96.50
2022-08-21T11:41:30.634Z,95.33
2022-08-21T11:44:14.021Z,95.41
2022-08-21T11:47:02.113Z,100.00
2022-08-21T11:50:34.020Z,100.00
2022-08-21T11:53:13.994Z,100.00
2022-08-21T11:55:50.995Z,88.11
2022-08-21T11:58:30.001Z,86.88
2022-08-21T12:01:08.858Z,81.82
2022-08-21T12:03:43.614Z,80.58
2022-08-21T12:06:24.089Z,79.96
2022-08-21T12:09:03.346Z,81.96
2022-08-21T12:11:33.900Z,81.48
2022-08-21T12:14:18.386Z,76.32
2022-08-21T12:16:52.094Z,77.81
2022-08-21T12:19:33.977Z,78.05
2022-08-21T12:22:14.284Z,87.65
2022-08-21T12:24:47.881Z,75.91
2022-08-21T12:27:29.480Z,73.08
2022-08-21T12:30:20.232Z,67.79
2022-08-21T12:33:03.789Z,62.29
2022-08-21T12:35:43.475Z,64.91
2022-08-21T12:38:21.140Z,62.92
2022-08-21T12:40:58.219Z,61.62
2022-08-21T12:43:37.137Z,63.49
2022-08-21T12:46:08.738Z,65.75
2022-08-21T12:48:49.211Z,60.22
2022-08-21T12:51:28.014Z,61.67
2022-08-21T12:54:01.174Z,59.63
2022-08-21T12:56:35.377Z,61.61
2022-08-21T12:59:14.712Z,58.61
2022-08-21T13:01:53.563Z,60.77
2022-08-21T13:04:35.315Z,57.76
2022-08-21T13:07:33.133Z,51.24
2022-08-21T13:10:09.542Z,53.70
2022-08-21T13:12:39.248Z,52.17
2022-08-21T13:15:10.606Z,55.15
2022-08-21T13:17:49.370Z,55.47
2022-08-21T13:20:35.628Z,51.27
2022-08-21T13:23:23.472Z,49.43
2022-08-21T13:25:53.126Z,54.17
2022-08-21T13:28:23.781Z,49.08
2022-08-21T13:30:56.969Z,50.69
2022-08-21T13:33:37.333Z,50.77
2022-08-21T13:36:16.234Z,50.43
2022-08-21T13:38:48.415Z,49.72
2022-08-21T13:41:28.419Z,51.09
2022-08-21T13:44:02.214Z,51.75
2022-08-21T13:46:56.293Z,51.84
2022-08-21T13:53:01.901Z,52.49
2022-08-21T13:55:44.474Z,56.83
2022-08-21T13:58:14.222Z,53.72
2022-08-21T14:00:51.404Z,57.54
2022-08-21T14:03:35.398Z,53.35
2022-08-21T14:06:15.301Z,54.00
2022-08-21T14:08:51.825Z,51.23
2022-08-21T14:11:22.021Z,55.39
2022-08-21T14:14:01.118Z,50.36
2022-08-21T14:16:45.859Z,44.28
2022-08-21T14:19:24.699Z,46.85
2022-08-21T14:21:56.518Z,47.25
2022-08-21T14:24:32.122Z,47.58
2022-08-21T14:27:09.188Z,46.27
2022-08-21T14:29:43.968Z,47.54
2022-08-21T14:32:24.622Z,49.59
2022-08-21T14:34:55.428Z,50.88
2022-08-21T14:37:30.285Z,50.55
2022-08-21T14:40:00.015Z,50.25
2022-08-21T14:42:30.667Z,47.78
2022-08-21T14:45:13.161Z,43.88
2022-08-21T14:47:43.570Z,43.17
2022-08-21T14:50:14.879Z,48.12
2022-08-21T14:52:46.603Z,45.01
2022-08-21T14:55:18.678Z,41.40
2022-08-21T14:57:53.041Z,41.47
2022-08-21T15:00:36.225Z,44.25
2022-08-21T15:03:06.202Z,42.65
2022-08-21T15:05:35.776Z,41.53
2022-08-21T15:08:06.833Z,41.46
2022-08-21T15:10:52.382Z,41.60
2022-08-21T15:13:27.464Z,40.53
2022-08-21T15:16:02.385Z,39.17
2022-08-21T15:18:34.325Z,41.34
2022-08-21T15:21:03.851Z,39.88
2022-08-21T15:23:34.695Z,40.40
2022-08-21T15:26:29.399Z,40.63
2022-08-21T15:28:59.259Z,42.62
2022-08-21T15:31:30.669Z,39.69
2022-08-21T15:34:00.190Z,39.95
2022-08-21T15:36:57.053Z,41.15
2022-08-21T15:39:31.101Z,42.53
2022-08-21T15:42:27.636Z,43.47
2022-08-21T15:44:58.413Z,43.33
2022-08-21T15:47:34.350Z,42.05
2022-08-21T15:50:07.149Z,41.57
2022-08-21T15:52:38.007Z,41.52
2022-08-21T15:55:11.072Z,40.19
2022-08-21T15:57:57.222Z,42.16
2022-08-21T16:00:28.968Z,42.90
2022-08-21T16:03:01.691Z,42.83
2022-08-21T16:05:32.734Z,43.30
2022-08-21T16:08:03.727Z,43.84
2022-08-21T16:10:37.319Z,43.89
2022-08-21T16:13:14.434Z,43.38
2022-08-21T16:15:44.074Z,43.70
2022-08-21T16:18:13.689Z,44.16
2022-08-21T16:20:43.351Z,44.75
2022-08-21T16:23:12.959Z,43.46
2022-08-21T16:25:45.667Z,45.11
2022-08-21T16:28:19.474Z,45.11
2022-08-21T16:30:52.112Z,45.68
2022-08-21T16:33:30.162Z,46.33
2022-08-21T16:36:00.330Z,46.46
2022-08-21T16:38:32.532Z,46.22
2022-08-21T16:41:03.547Z,46.25
2022-08-21T16:43:36.733Z,48.09
2022-08-21T16:46:12.374Z,48.00
2022-08-21T16:48:44.843Z,47.71
2022-08-21T16:51:32.694Z,48.64
2022-08-21T16:54:02.930Z,48.96
2022-08-21T16:56:35.196Z,49.43
2022-08-21T16:59:06.318Z,50.22
2022-08-21T17:01:37.009Z,51.30
2022-08-21T17:04:06.949Z,52.23
2022-08-21T17:06:36.603Z,53.06
2022-08-21T17:09:06.433Z,52.95
2022-08-21T17:11:42.988Z,52.51
2022-08-21T17:14:20.587Z,53.21
2022-08-21T17:16:55.107Z,54.21
2022-08-21T17:19:25.364Z,54.39
2022-08-21T17:32:31.838Z,58.41
2022-08-21T18:19:49.127Z,100.00
2022-08-21T18:22:18.919Z,100.00
2022-08-21T18:24:48.803Z,100.00
2022-08-21T18:27:18.887Z,100.00
2022-08-21T18:29:58.619Z,100.00
2022-08-21T18:32:31.744Z,100.00
2022-08-21T18:35:05.635Z,100.00
2022-08-21T18:37:35.452Z,100.00
2022-08-21T20:00:39.114Z,100.00
2022-08-21T20:03:13.657Z,100.00
